createdAt,value
2023-03-23T00:00:28.014Z,92
2023-03-23T00:05:34.334Z,92
2023-03-23T00:10:21.111Z,92
2023-03-23T00:15:27.399Z,92
2023-03-23T00:20:33.493Z,92
2023-03-23T00:25:22.263Z,92
2023-03-23T00:30:27.752Z,92
2023-03-23T00:35:17.025Z,92
2023-03-23T00:40:24.389Z,92
2023-03-23T00:45:28.849Z,92
2023-03-23T00:50:19.788Z,92
2023-03-23T00:55:23.949Z,92
2023-03-23T01:00:32.872Z,92
2023-03-23T01:05:18.364Z,92
2023-03-23T01:10:24.490Z,92
2023-03-23T01:15:30.499Z,92
2023-03-23T01:20:20.741Z,92
2023-03-23T01:25:25.788Z,92
2023-03-23T01:30:31.980Z,92
2023-03-23T01:35:20.944Z,93
2023-03-23T01:40:27.111Z,93
2023-03-23T01:45:33.365Z,93
2023-03-23T01:50:22.131Z,93
2023-03-23T01:55:28.553Z,93
2023-03-23T02:00:18.723Z,92
2023-03-23T02:05:23.273Z,92
2023-03-23T02:10:29.755Z,92
2023-03-23T02:15:17.751Z,92
2023-03-23T02:20:23.943Z,92
2023-03-23T02:25:30.113Z,92
2023-03-23T02:30:18.922Z,92
2023-03-23T02:35:25.089Z,91
2023-03-23T02:40:32.920Z,90
2023-03-23T02:45:19.786Z,88
2023-03-23T02:50:26.010Z,88
2023-03-23T02:55:32.070Z,86
2023-03-23T03:00:24.976Z,85
2023-03-23T03:05:26.438Z,85
2023-03-23T03:10:32.761Z,83
2023-03-23T03:15:21.478Z,81
2023-03-23T03:20:29.179Z,79
2023-03-23T03:25:18.658Z,78
2023-03-23T03:30:23.246Z,76
2023-03-23T03:35:29.310Z,74
2023-03-23T03:40:18.388Z,74
2023-03-23T03:45:24.202Z,75
2023-03-23T03:50:30.280Z,76
2023-03-23T03:55:19.578Z,76
2023-03-23T04:00:29.543Z,78
2023-03-23T04:05:30.854Z,78
2023-03-23T04:10:32.719Z,76
2023-03-23T04:15:25.745Z,76
2023-03-23T04:20:32.371Z,74
2023-03-23T04:25:20.774Z,74
2023-03-23T04:30:26.498Z,72
2023-03-23T04:35:32.525Z,71
2023-03-23T04:40:23.416Z,71
2023-03-23T04:45:27.595Z,70
2023-03-23T04:50:16.638Z,70
2023-03-23T04:55:22.722Z,70
2023-03-23T05:00:32.388Z,71
2023-03-23T05:05:18.143Z,71
2023-03-23T05:10:24.668Z,72
2023-03-23T05:15:29.651Z,73
2023-03-23T05:20:18.859Z,75
2023-03-23T05:25:25.081Z,76
2023-03-23T05:30:31.318Z,77
2023-03-23T05:35:19.797Z,77
2023-03-23T05:40:27.381Z,75
2023-03-23T05:45:32.214Z,74
2023-03-23T05:50:21.168Z,73
2023-03-23T05:55:27.112Z,71
2023-03-23T06:00:36.513Z,70
2023-03-23T06:05:21.715Z,69
2023-03-23T06:10:29.088Z,69
2023-03-23T06:15:16.635Z,68
2023-03-23T06:20:24.299Z,67
2023-03-23T06:25:29.040Z,67
2023-03-23T06:30:19.254Z,67
2023-03-23T06:35:23.649Z,69
2023-03-23T06:40:29.714Z,69
2023-03-23T06:45:18.963Z,67
2023-03-23T06:50:25.117Z,66
2023-03-23T06:55:30.826Z,65
2023-03-23T07:00:23.414Z,65
2023-03-23T07:05:26.350Z,64
2023-03-23T07:10:32.368Z,64
2023-03-23T07:15:21.592Z,64
2023-03-23T07:20:27.748Z,64
2023-03-23T07:25:33.751Z,64
2023-03-23T07:30:22.064Z,64
2023-03-23T07:35:28.276Z,64
2023-03-23T07:40:17.370Z,63
2023-03-23T07:45:23.155Z,63
2023-03-23T07:50:29.297Z,63
2023-03-23T07:55:18.339Z,62
2023-03-23T08:00:28.491Z,62
2023-03-23T08:05:30.722Z,62
2023-03-23T08:10:19.340Z,62
2023-03-23T08:15:25.575Z,62
2023-03-23T08:20:32.195Z,62
2023-03-23T08:25:21.025Z,63
2023-03-23T08:30:26.974Z,64
2023-03-23T08:35:32.890Z,64
2023-03-23T08:40:23.972Z,63
2023-03-23T08:45:27.821Z,64
2023-03-23T08:50:16.788Z,63
2023-03-23T08:55:22.904Z,63
2023-03-23T09:00:33.889Z,64
2023-03-23T09:05:18.521Z,65
2023-03-23T09:10:24.375Z,65
2023-03-23T09:15:34.138Z,66
2023-03-23T09:20:19.721Z,66
2023-03-23T09:25:25.054Z,66
2023-03-23T09:30:30.677Z,66
2023-03-23T09:35:19.926Z,65
2023-03-23T09:40:26.259Z,66
2023-03-23T09:45:32.039Z,65
2023-03-23T09:50:21.411Z,64
2023-03-23T09:55:27.673Z,64
2023-03-23T10:00:48.314Z,66
2023-03-23T10:05:21.986Z,66
2023-03-23T10:10:27.838Z,66
2023-03-23T10:15:17.173Z,66
2023-03-23T10:20:22.790Z,66
2023-03-23T10:25:28.595Z,65
2023-03-23T10:30:17.687Z,65
2023-03-23T10:35:24.124Z,65
2023-03-23T10:40:29.871Z,64
2023-03-23T10:45:18.442Z,63
2023-03-23T10:50:24.626Z,63
2023-03-23T10:55:30.910Z,63
2023-03-23T11:00:22.554Z,62
2023-03-23T11:05:26.494Z,62
2023-03-23T11:10:32.697Z,62
2023-03-23T11:15:21.339Z,63
2023-03-23T11:20:29.738Z,63
2023-03-23T11:25:33.442Z,62
2023-03-23T11:30:22.278Z,63
2023-03-23T11:35:28.141Z,63
2023-03-23T11:40:18.457Z,63
2023-03-23T11:45:23.214Z,63
2023-03-23T11:50:32.048Z,63
2023-03-23T11:55:18.080Z,64
2023-03-23T12:00:29.974Z,64
2023-03-23T12:05:29.968Z,64
2023-03-23T12:10:25.449Z,64
2023-03-23T12:15:27.068Z,64
2023-03-23T12:20:42.860Z,66
2023-03-23T12:25:19.975Z,67
2023-03-23T12:30:25.524Z,69
2023-03-23T12:35:31.579Z,72
2023-03-23T12:40:22.091Z,73
2023-03-23T12:45:26.969Z,74
2023-03-23T12:50:32.681Z,74
2023-03-23T12:55:21.966Z,73
2023-03-23T13:00:28.810Z,72
2023-03-23T13:05:17.177Z,72
2023-03-23T13:10:23.197Z,72
2023-03-23T13:15:29.234Z,72
2023-03-23T13:20:18.722Z,72
2023-03-23T13:25:24.357Z,72
2023-03-23T13:30:31.474Z,71
2023-03-23T13:35:20.743Z,70
2023-03-23T13:40:26.075Z,70
2023-03-23T13:45:31.757Z,70
2023-03-23T13:50:20.651Z,70
2023-03-23T13:55:26.684Z,70
2023-03-23T14:00:21.822Z,70
2023-03-23T14:05:21.490Z,70
2023-03-23T14:10:27.232Z,69
2023-03-23T14:15:33.301Z,70
2023-03-23T14:20:23.425Z,70
2023-03-23T14:25:29.403Z,69
2023-03-23T14:30:17.197Z,68
2023-03-23T14:35:23.280Z,67
2023-03-23T14:40:30.457Z,66
2023-03-23T14:45:18.362Z,66
2023-03-23T14:50:24.726Z,66
2023-03-23T14:55:30.213Z,66
2023-03-23T15:00:21.855Z,66
2023-03-23T15:05:24.665Z,66
2023-03-23T15:10:31.024Z,66
2023-03-23T15:15:21.336Z,66
2023-03-23T15:20:28.427Z,67
2023-03-23T15:25:33.288Z,67
2023-03-23T15:30:20.327Z,67
2023-03-23T15:35:26.412Z,67
2023-03-23T15:40:32.769Z,68
2023-03-23T15:45:21.750Z,68
2023-03-23T15:50:27.872Z,68
2023-03-23T15:55:16.922Z,68
2023-03-23T16:00:24.810Z,68
2023-03-23T16:05:29.672Z,68
2023-03-23T16:10:19.169Z,68
2023-03-23T16:15:24.484Z,68
2023-03-23T16:20:30.875Z,68
2023-03-23T16:25:19.373Z,68
2023-03-23T16:30:24.929Z,68
2023-03-23T16:35:30.919Z,68
2023-03-23T16:40:21.516Z,68
2023-03-23T16:45:26.460Z,68
2023-03-23T16:50:32.228Z,68
2023-03-23T16:55:21.253Z,69
2023-03-23T17:00:30.365Z,69
2023-03-23T17:05:32.517Z,69
2023-03-23T17:10:21.548Z,70
2023-03-23T17:15:28.037Z,70
2023-03-23T17:20:17.660Z,70
2023-03-23T17:25:22.850Z,71
2023-03-23T17:30:28.662Z,71
2023-03-23T17:35:18.681Z,71
2023-03-23T17:40:25.441Z,72
2023-03-23T17:45:29.461Z,72
2023-03-23T17:50:18.504Z,73
2023-03-23T17:55:24.768Z,74
2023-03-23T18:00:35.830Z,74
2023-03-23T18:05:20.143Z,74
2023-03-23T18:10:26.384Z,76
2023-03-23T18:15:33.774Z,77
2023-03-23T18:20:21.622Z,77
2023-03-23T18:25:27.242Z,76
2023-03-23T18:30:32.951Z,75
2023-03-23T18:35:22.188Z,74
2023-03-23T18:40:28.003Z,74
2023-03-23T18:45:18.156Z,73
2023-03-23T18:50:23.147Z,73
2023-03-23T18:55:29.688Z,73
2023-03-23T19:00:22.251Z,73
2023-03-23T19:05:23.668Z,73
2023-03-23T19:10:29.964Z,74
2023-03-23T19:15:18.821Z,75
2023-03-23T19:20:54.934Z,76
2023-03-23T19:25:31.216Z,77
2023-03-23T19:30:19.136Z,78
2023-03-23T19:35:26.487Z,80
2023-03-23T19:40:40.635Z,81
2023-03-23T19:45:20.525Z,83
2023-03-23T19:50:26.652Z,84
2023-03-23T19:55:32.484Z,85
2023-03-23T20:00:25.028Z,86
2023-03-23T20:05:28.066Z,86
2023-03-23T20:10:16.910Z,87
2023-03-23T20:15:23.308Z,87
2023-03-23T20:20:29.271Z,88
2023-03-23T20:25:18.335Z,88
2023-03-23T20:30:23.799Z,88
2023-03-23T20:35:29.792Z,88
2023-03-23T20:40:19.854Z,89
2023-03-23T20:45:24.925Z,89
2023-03-23T20:50:30.735Z,89
2023-03-23T20:55:19.803Z,89
2023-03-23T21:00:26.405Z,90
2023-03-23T21:05:32.082Z,90
2023-03-23T21:10:21.116Z,90
2023-03-23T21:15:27.446Z,90
2023-03-23T21:20:33.639Z,90
2023-03-23T21:25:22.493Z,90
2023-03-23T21:30:28.121Z,90
2023-03-23T21:35:16.890Z,91
2023-03-23T21:40:23.921Z,91
2023-03-23T21:45:29.043Z,91
2023-03-23T21:50:18.058Z,91
2023-03-23T21:55:24.134Z,90
2023-03-23T22:00:33.852Z,89
2023-03-23T22:05:18.797Z,87
2023-03-23T22:10:24.922Z,84
2023-03-23T22:15:30.727Z,82
2023-03-23T22:20:20.334Z,79
2023-03-23T22:25:25.819Z,78
2023-03-23T22:30:31.799Z,78
2023-03-23T22:35:20.541Z,77
2023-03-23T22:40:26.707Z,77
2023-03-23T22:45:33.053Z,76
2023-03-23T22:50:21.715Z,76
2023-03-23T22:55:28.035Z,76
2023-03-23T23:00:17.550Z,76
2023-03-23T23:05:22.489Z,76
2023-03-23T23:10:28.804Z,75
2023-03-23T23:15:17.416Z,76
2023-03-23T23:20:25.007Z,76
2023-03-23T23:25:29.689Z,76
2023-03-23T23:30:19.087Z,76
2023-03-23T23:35:25.185Z,76
2023-03-23T23:40:31.513Z,76
2023-03-23T23:45:20.503Z,76
2023-03-23T23:50:26.336Z,76
2023-03-23T23:55:32.372Z,76
